Mc Louth, Kansas
Current Conditions -  °F | °C
As of 11:52 PM on Thursday 27 Nov 2014 (Local Time) from KLWC Reporting Station
Clear Clear  
Wind Chill: 19°   Ceiling: Unl
Heat Index: 27°   Visibility: 7mi
Dew Point: 22°   Wind: 8mph
Humidity: 81%   Direction: 120°ESE
Pressure: 30.23"   Gusts: NA
Location:  39.1639°N, 95.2236°W
Report Text: KLWC 280552Z AUTO 12007KT 7SM CLR M03/M06 A3023 RMK AO2 SLP246 T10281056 10000 21039 400391067 58025
Loading
Personal Weather Stations






























Interactive Weather Map New forecast layout! Learn more

10-Day Weather Forecast

Advertisements
Track Severe Weather on mobile